createdAt,value
2022-10-11T00:01:21.042Z,1.55
2022-10-11T00:03:47.643Z,1.88
2022-10-11T00:06:14.171Z,1.33
2022-10-11T00:08:40.704Z,2.47
2022-10-11T00:11:08.168Z,2.20
2022-10-11T00:13:34.945Z,1.80
2022-10-11T00:16:01.879Z,3.70
2022-10-11T00:18:29.598Z,1.90
2022-10-11T00:21:08.872Z,2.90
2022-10-11T00:23:36.376Z,1.55
2022-10-11T00:26:07.621Z,2.78
2022-10-11T00:28:36.291Z,1.67
2022-10-11T00:31:08.713Z,2.95
2022-10-11T00:33:36.650Z,2.00
2022-10-11T00:36:05.196Z,2.70
2022-10-11T00:38:32.249Z,2.05
2022-10-11T00:41:00.183Z,4.43
2022-10-11T00:43:29.354Z,3.30
2022-10-11T00:48:50.801Z,2.45
2022-10-11T00:51:23.764Z,2.05
2022-10-11T00:53:51.672Z,2.22
2022-10-11T00:56:27.612Z,2.50
2022-10-11T00:58:55.849Z,2.25
2022-10-11T01:01:22.514Z,1.75
2022-10-11T01:03:49.276Z,2.10
2022-10-11T01:06:16.012Z,1.85
2022-10-11T01:08:43.311Z,1.80
2022-10-11T01:11:14.951Z,2.80
2022-10-11T01:13:58.317Z,2.00
2022-10-11T01:16:42.693Z,2.15
2022-10-11T01:21:53.983Z,3.10
2022-10-11T01:30:32.093Z,1.90
2022-10-11T01:33:13.462Z,1.92
2022-10-11T01:35:48.784Z,1.88
2022-10-11T01:38:38.621Z,1.98
2022-10-11T01:43:39.438Z,1.70
2022-10-11T01:46:08.761Z,2.08
2022-10-11T01:48:48.724Z,2.05
2022-10-11T01:51:15.961Z,2.75
2022-10-11T01:57:00.984Z,1.67
2022-10-11T02:06:04.455Z,3.40
2022-10-11T02:11:16.292Z,4.22
2022-10-11T02:13:50.717Z,2.33
2022-10-11T02:16:22.294Z,2.40
2022-10-11T02:18:52.954Z,2.08
2022-10-11T02:21:22.058Z,2.03
2022-10-11T02:23:53.855Z,1.75
2022-10-11T02:26:21.948Z,1.95
2022-10-11T02:28:52.581Z,2.22
2022-10-11T02:31:20.736Z,1.77
2022-10-11T02:33:55.721Z,1.85
2022-10-11T02:36:30.181Z,2.30
2022-10-11T02:39:12.329Z,2.35
2022-10-11T02:41:40.738Z,2.33
2022-10-11T02:44:13.429Z,1.65
2022-10-11T02:46:41.519Z,1.88
2022-10-11T02:49:08.900Z,1.52
2022-10-11T02:51:36.217Z,1.63
2022-10-11T02:54:02.796Z,2.05
2022-10-11T02:56:29.343Z,1.23
2022-10-11T02:58:56.024Z,1.60
2022-10-11T03:01:22.726Z,2.22
2022-10-11T03:03:49.318Z,2.55
2022-10-11T03:06:15.979Z,2.20
2022-10-11T03:08:42.704Z,2.28
2022-10-11T03:11:09.259Z,1.75
2022-10-11T03:13:35.802Z,1.92
2022-10-11T03:16:03.921Z,1.98
2022-10-11T03:18:31.262Z,1.85
2022-10-11T03:20:57.792Z,1.92
2022-10-11T03:23:24.365Z,2.10
2022-10-11T03:25:52.104Z,2.15
2022-10-11T03:28:19.614Z,2.20
2022-10-11T03:30:50.906Z,1.73
2022-10-11T03:33:18.084Z,1.95
2022-10-11T03:35:45.964Z,1.27
2022-10-11T03:38:15.093Z,2.65
2022-10-11T03:40:43.067Z,1.45
2022-10-11T03:43:10.588Z,1.50
2022-10-11T03:45:37.626Z,1.85
2022-10-11T03:48:04.515Z,1.50
2022-10-11T03:50:31.287Z,1.85
2022-10-11T03:52:57.847Z,1.48
2022-10-11T03:55:24.454Z,1.98
2022-10-11T03:57:50.992Z,1.80
2022-10-11T04:00:17.727Z,1.73
2022-10-11T04:02:44.453Z,1.73
2022-10-11T04:05:12.664Z,2.00
2022-10-11T04:07:40.092Z,1.80
2022-10-11T04:10:07.296Z,1.55
2022-10-11T04:12:34.510Z,2.28
2022-10-11T04:15:01.028Z,1.58
2022-10-11T04:17:27.549Z,1.73
2022-10-11T04:19:54.081Z,2.17
2022-10-11T04:22:20.894Z,2.00
2022-10-11T04:24:47.453Z,1.77
2022-10-11T04:27:13.980Z,2.25
2022-10-11T04:29:40.540Z,1.38
2022-10-11T04:32:07.148Z,1.50
2022-10-11T04:34:33.721Z,2.05
2022-10-11T04:37:00.296Z,2.55
2022-10-11T04:39:26.810Z,1.85
2022-10-11T04:41:53.364Z,1.23
2022-10-11T04:44:19.894Z,1.95
2022-10-11T04:46:46.435Z,1.92
2022-10-11T04:49:12.982Z,1.75
2022-10-11T04:51:39.515Z,1.50
2022-10-11T04:54:06.099Z,2.15
2022-10-11T04:56:32.714Z,2.40
2022-10-11T04:58:59.230Z,1.73
2022-10-11T05:01:25.781Z,2.00
2022-10-11T05:03:52.321Z,1.50
2022-10-11T05:06:18.973Z,2.42
2022-10-11T05:08:45.629Z,1.70
2022-10-11T05:11:15.785Z,2.30
2022-10-11T05:13:43.945Z,2.20
2022-10-11T05:16:11.777Z,1.67
2022-10-11T05:18:39.563Z,2.10
2022-10-11T05:23:43.116Z,4.05
2022-10-11T05:26:09.847Z,2.45
2022-10-11T05:28:36.781Z,1.20
2022-10-11T05:31:04.093Z,3.38
2022-10-11T05:33:30.782Z,1.50
2022-10-11T05:35:57.319Z,2.92
2022-10-11T05:38:24.029Z,3.47
2022-10-11T05:40:51.329Z,2.58
2022-10-11T05:43:18.358Z,3.17
2022-10-11T05:45:45.450Z,3.05
2022-10-11T05:48:13.066Z,2.90
2022-10-11T05:50:39.928Z,4.88
2022-10-11T05:53:06.915Z,3.75
2022-10-11T05:55:42.981Z,2.15
2022-10-11T05:58:14.091Z,2.67
2022-10-11T06:00:41.334Z,3.13
2022-10-11T06:03:10.492Z,5.07
2022-10-11T06:05:37.174Z,3.55
2022-10-11T06:08:06.127Z,3.10
2022-10-11T06:10:33.138Z,1.38
2022-10-11T06:12:59.773Z,2.88
2022-10-11T06:15:26.625Z,2.85
2022-10-11T06:17:53.267Z,3.42
2022-10-11T06:20:19.836Z,4.07
2022-10-11T06:22:46.413Z,3.90
2022-10-11T06:25:12.981Z,3.67
2022-10-11T06:27:39.513Z,1.92
2022-10-11T06:30:07.407Z,1.60
2022-10-11T06:32:34.040Z,3.58
2022-10-11T06:35:00.580Z,1.90
2022-10-11T06:37:27.117Z,2.65
2022-10-11T06:39:53.644Z,3.22
2022-10-11T06:42:20.240Z,7.88
2022-10-11T06:44:46.785Z,4.13
2022-10-11T06:47:13.328Z,4.20
2022-10-11T06:49:39.883Z,3.75
2022-10-11T06:52:06.444Z,4.50
2022-10-11T06:54:32.981Z,2.47
2022-10-11T06:56:59.535Z,2.22
2022-10-11T06:59:26.111Z,4.25
2022-10-11T07:01:52.616Z,3.65
2022-10-11T07:04:19.147Z,3.00
2022-10-11T07:06:45.664Z,1.92
2022-10-11T07:09:12.240Z,1.48
2022-10-11T07:11:38.917Z,1.55
2022-10-11T07:14:07.904Z,3.58
2022-10-11T07:16:36.381Z,3.17
2022-10-11T07:19:04.922Z,3.30
2022-10-11T07:21:33.970Z,1.98
2022-10-11T07:24:01.246Z,1.83
2022-10-11T07:26:31.447Z,3.28
2022-10-11T07:29:00.665Z,3.00
2022-10-11T07:31:27.406Z,3.67
2022-10-11T07:33:54.269Z,2.20
2022-10-11T07:36:25.563Z,2.72
2022-10-11T07:38:52.124Z,3.65
2022-10-11T07:41:18.791Z,2.83
2022-10-11T07:43:47.790Z,5.78
2022-10-11T07:46:14.389Z,4.85
2022-10-11T07:48:41.749Z,5.53
2022-10-11T07:54:04.704Z,8.68
2022-10-11T07:56:33.721Z,9.15
2022-10-11T07:59:03.622Z,8.13
2022-10-11T08:01:31.110Z,6.55
2022-10-11T08:03:58.901Z,4.82
2022-10-11T08:06:29.821Z,5.38
2022-10-11T08:08:59.464Z,3.75
2022-10-11T08:11:28.934Z,4.07
2022-10-11T08:13:55.778Z,4.03
2022-10-11T08:16:22.293Z,3.65
2022-10-11T08:18:48.996Z,3.53
2022-10-11T08:21:17.817Z,5.13
2022-10-11T08:23:44.587Z,3.00
2022-10-11T08:26:11.472Z,2.35
2022-10-11T08:28:38.550Z,3.08
2022-10-11T08:31:05.631Z,2.25
2022-10-11T08:33:32.640Z,2.53
2022-10-11T08:35:59.199Z,2.05
2022-10-11T08:38:25.746Z,2.45
2022-10-11T08:40:55.853Z,2.85
2022-10-11T08:46:24.339Z,6.05
2022-10-11T08:48:52.220Z,4.60
2022-10-11T08:51:24.551Z,4.03
2022-10-11T08:54:06.434Z,7.15
2022-10-11T08:56:37.314Z,6.10
2022-10-11T09:01:58.210Z,5.97
2022-10-11T09:04:24.847Z,6.70
2022-10-11T09:07:05.157Z,5.07
2022-10-11T09:10:03.688Z,7.30
2022-10-11T09:12:57.364Z,6.28
2022-10-11T09:26:33.767Z,3.92
2022-10-11T09:29:40.129Z,2.80
2022-10-11T09:32:15.008Z,1.92
2022-10-11T09:34:42.022Z,2.42
2022-10-11T09:39:58.819Z,2.47
2022-10-11T09:42:25.320Z,2.78
2022-10-11T09:44:52.456Z,1.30
2022-10-11T09:47:24.134Z,3.40
2022-10-11T09:49:57.485Z,3.08
2022-10-11T09:52:24.960Z,2.60
2022-10-11T09:54:55.471Z,4.18
2022-10-11T09:57:26.320Z,5.72
2022-10-11T10:00:21.541Z,3.95
2022-10-11T10:10:49.582Z,1.67
2022-10-11T10:15:56.460Z,2.13
2022-10-11T10:21:01.514Z,1.90
2022-10-11T10:23:31.807Z,1.92
2022-10-11T10:26:20.834Z,1.50
2022-10-11T10:35:05.224Z,2.08
2022-10-11T10:37:38.784Z,1.60
2022-10-11T10:40:13.236Z,1.50
2022-10-11T10:42:40.202Z,1.58
2022-10-11T10:45:20.893Z,1.75
2022-10-11T10:48:17.682Z,1.15
2022-10-11T10:53:34.340Z,2.15
2022-10-11T10:56:12.278Z,1.65
2022-10-11T11:01:22.946Z,1.50
2022-10-11T11:04:24.378Z,2.22
2022-10-11T11:06:58.717Z,2.35
2022-10-11T11:18:37.514Z,2.50
2022-10-11T11:23:50.649Z,0.98
2022-10-11T11:26:56.319Z,1.13
2022-10-11T11:30:02.750Z,1.65
2022-10-11T11:35:45.311Z,1.42
2022-10-11T11:38:27.146Z,1.45
2022-10-11T11:40:59.309Z,1.27
2022-10-11T11:43:34.872Z,0.93
2022-10-11T11:46:10.405Z,1.13
2022-10-11T11:48:38.723Z,1.45
2022-10-11T11:59:34.554Z,1.45
2022-10-11T12:04:53.642Z,1.45
2022-10-11T12:07:24.755Z,0.90
2022-10-11T12:10:13.905Z,0.60
2022-10-11T12:12:41.158Z,2.63
2022-10-11T12:18:04.717Z,1.55
2022-10-11T12:20:40.785Z,0.95
2022-10-11T12:31:35.603Z,0.90
2022-10-11T12:42:23.173Z,3.15
2022-10-11T12:48:04.486Z,3.50
2022-10-11T12:56:25.843Z,1.95
2022-10-11T12:59:02.956Z,1.23
2022-10-11T13:01:36.329Z,3.00
2022-10-11T13:04:08.692Z,2.95
2022-10-11T13:06:54.655Z,1.52
2022-10-11T13:12:21.556Z,1.60
2022-10-11T13:15:00.708Z,1.10
2022-10-11T13:17:38.282Z,0.93
2022-10-11T13:22:46.065Z,2.58
2022-10-11T13:25:18.036Z,5.68
2022-10-11T13:27:45.825Z,2.75
2022-10-11T13:30:20.502Z,3.40
2022-10-11T13:32:47.869Z,3.80
2022-10-11T13:35:34.293Z,3.00
2022-10-11T13:38:01.501Z,3.50
2022-10-11T13:40:30.103Z,4.13
2022-10-11T13:42:57.568Z,3.50
2022-10-11T13:45:27.074Z,3.28
2022-10-11T13:47:55.052Z,2.97
2022-10-11T13:50:33.543Z,2.85
2022-10-11T13:58:44.715Z,0.60
2022-10-11T14:01:36.179Z,0.93
2022-10-11T14:04:06.409Z,0.73
2022-10-11T14:09:32.241Z,0.85
2022-10-11T14:15:05.009Z,1.70
2022-10-11T14:17:42.841Z,0.55
2022-10-11T14:22:46.426Z,0.80
2022-10-11T14:25:13.366Z,0.95
2022-10-11T14:27:40.199Z,1.17
2022-10-11T14:30:30.193Z,1.13
2022-10-11T14:32:59.786Z,0.50
2022-10-11T14:35:30.479Z,0.80
2022-10-11T14:37:57.634Z,0.93
2022-10-11T14:40:27.611Z,1.30
2022-10-11T14:42:55.157Z,0.90
2022-10-11T14:45:22.005Z,0.70
2022-10-11T14:47:49.472Z,0.75
2022-10-11T14:52:52.993Z,0.95
2022-10-11T14:55:19.580Z,0.70
2022-10-11T14:57:46.658Z,3.20
2022-10-11T15:00:21.200Z,4.45
2022-10-11T15:02:48.469Z,3.78
2022-10-11T15:05:15.140Z,0.68
2022-10-11T15:07:41.893Z,2.25
2022-10-11T15:12:56.338Z,1.95
2022-10-11T15:15:26.477Z,2.17
2022-10-11T15:17:56.277Z,0.90
2022-10-11T15:23:01.097Z,1.45
2022-10-11T15:25:29.099Z,3.55
2022-10-11T15:27:56.738Z,1.38
2022-10-11T15:30:27.543Z,2.63
2022-10-11T15:32:54.496Z,2.72
2022-10-11T15:35:23.274Z,3.60
2022-10-11T15:37:55.461Z,2.10
2022-10-11T15:43:01.948Z,2.10
2022-10-11T15:45:29.252Z,1.13
2022-10-11T15:47:56.632Z,1.13
2022-10-11T15:50:34.879Z,1.80
2022-10-11T15:55:45.909Z,1.30
2022-10-11T15:58:16.942Z,1.05
2022-10-11T16:00:45.286Z,0.95
2022-10-11T16:03:13.878Z,2.17
2022-10-11T16:05:41.395Z,1.67
2022-10-11T16:08:08.345Z,1.25
2022-10-11T16:10:35.246Z,3.22
2022-10-11T16:13:02.150Z,1.50
2022-10-11T16:15:29.156Z,1.25
2022-10-11T16:17:55.894Z,1.42
2022-10-11T16:20:24.574Z,1.58
2022-10-11T16:22:54.016Z,1.23
2022-10-11T16:25:21.928Z,1.83
2022-10-11T16:27:48.552Z,3.30
2022-10-11T16:30:16.536Z,2.08
2022-10-11T16:32:44.463Z,2.30
2022-10-11T16:35:13.934Z,1.92
2022-10-11T16:37:40.923Z,1.25
2022-10-11T16:40:09.865Z,1.23
2022-10-11T16:42:39.007Z,0.98
2022-10-11T16:45:06.838Z,0.95
2022-10-11T16:47:33.486Z,1.30
2022-10-11T16:50:00.189Z,1.05
2022-10-11T16:52:27.078Z,0.80
2022-10-11T16:54:53.613Z,1.00
2022-10-11T16:57:20.492Z,0.82
2022-10-11T16:59:47.172Z,0.88
2022-10-11T17:02:18.092Z,0.82
2022-10-11T17:04:45.447Z,1.63
2022-10-11T17:07:13.117Z,2.47
2022-10-11T17:09:43.978Z,4.75
2022-10-11T17:12:13.177Z,4.95
2022-10-11T17:14:41.111Z,2.72
2022-10-11T17:17:09.767Z,2.33
2022-10-11T17:19:42.624Z,2.15
2022-10-11T17:22:13.104Z,1.55
2022-10-11T17:24:39.788Z,2.72
2022-10-11T17:27:06.998Z,3.25
2022-10-11T17:29:34.135Z,3.75
2022-10-11T17:32:01.475Z,3.70
2022-10-11T17:34:28.273Z,3.40
2022-10-11T17:36:55.014Z,2.22
2022-10-11T17:39:23.860Z,2.50
2022-10-11T17:41:50.983Z,2.08
2022-10-11T17:44:18.554Z,1.98
2022-10-11T17:46:45.620Z,1.45
2022-10-11T17:49:13.349Z,1.50
2022-10-11T17:51:40.763Z,1.60
2022-10-11T17:54:12.385Z,3.00
2022-10-11T17:56:41.335Z,1.23
2022-10-11T17:59:11.762Z,1.83
2022-10-11T18:01:38.546Z,1.73
2022-10-11T18:04:06.184Z,2.00
2022-10-11T18:06:38.118Z,2.47
2022-10-11T18:09:05.049Z,1.02
2022-10-11T18:11:31.950Z,1.15
2022-10-11T18:13:58.538Z,1.25
2022-10-11T18:16:27.831Z,1.23
2022-10-11T18:18:57.240Z,1.45
2022-10-11T18:21:31.216Z,1.02
2022-10-11T18:24:12.572Z,1.58
2022-10-11T18:26:39.375Z,1.45
2022-10-11T18:29:05.976Z,1.38
2022-10-11T18:31:35.085Z,1.25
2022-10-11T18:34:04.147Z,1.13
2022-10-11T18:36:31.835Z,1.17
2022-10-11T18:39:02.201Z,1.05
2022-10-11T18:41:32.038Z,1.35
2022-10-11T18:46:27.735Z,1.02
2022-10-11T18:48:55.611Z,1.20
2022-10-11T18:51:25.833Z,1.10
2022-10-11T18:53:53.670Z,1.40
2022-10-11T18:56:22.354Z,1.45
2022-10-11T18:58:50.393Z,1.55
2022-10-11T19:01:23.035Z,2.88
2022-10-11T19:03:52.920Z,3.88
2022-10-11T19:06:22.512Z,2.88
2022-10-11T19:08:53.244Z,2.08
2022-10-11T19:11:22.313Z,4.63
2022-10-11T19:13:56.405Z,1.90
2022-10-11T19:16:23.702Z,1.25
2022-10-11T19:18:52.244Z,1.48
2022-10-11T19:21:19.562Z,1.05
2022-10-11T19:23:48.361Z,1.38
2022-10-11T19:26:18.754Z,1.25
2022-10-11T19:28:46.475Z,1.73
2022-10-11T19:31:17.055Z,1.58
2022-10-11T19:33:45.153Z,1.58
2022-10-11T19:36:14.149Z,1.40
2022-10-11T19:38:45.174Z,1.25
2022-10-11T19:41:12.820Z,1.58
2022-10-11T19:43:39.408Z,2.05
2022-10-11T19:46:09.573Z,2.05
2022-10-11T19:48:38.157Z,2.47
2022-10-11T19:53:41.660Z,3.25
2022-10-11T19:56:12.463Z,2.92
2022-10-11T19:58:40.215Z,2.63
2022-10-11T20:01:12.107Z,1.92
2022-10-11T20:03:39.204Z,2.63
2022-10-11T20:06:07.913Z,3.50
2022-10-11T20:08:35.618Z,2.55
2022-10-11T20:11:05.259Z,2.33
2022-10-11T20:13:34.832Z,2.90
2022-10-11T20:18:41.419Z,3.25
2022-10-11T20:21:12.153Z,3.22
2022-10-11T20:28:39.713Z,2.85
2022-10-11T20:31:26.257Z,2.58
2022-10-11T20:33:56.921Z,3.35
2022-10-11T20:36:24.968Z,2.92
2022-10-11T20:38:52.441Z,3.35
2022-10-11T20:41:23.451Z,4.82
2022-10-11T20:43:52.705Z,3.45
2022-10-11T20:46:21.904Z,2.35
2022-10-11T20:48:51.489Z,2.78
2022-10-11T20:51:18.712Z,2.95
2022-10-11T20:53:45.471Z,2.75
2022-10-11T20:56:15.149Z,2.58
2022-10-11T20:58:42.265Z,2.28
2022-10-11T21:03:46.450Z,3.55
2022-10-11T21:06:13.186Z,1.80
2022-10-11T21:08:40.325Z,2.35
2022-10-11T21:11:07.898Z,1.55
2022-10-11T21:13:35.171Z,1.77
2022-10-11T21:16:07.983Z,1.30
2022-10-11T21:18:34.776Z,1.88
2022-10-11T21:21:12.307Z,1.10
2022-10-11T21:23:39.975Z,1.30
2022-10-11T21:26:09.449Z,2.05
2022-10-11T21:28:36.320Z,1.50
2022-10-11T21:31:09.406Z,2.30
2022-10-11T21:33:36.793Z,1.13
2022-10-11T21:36:05.313Z,1.45
2022-10-11T21:38:31.968Z,1.77
2022-10-11T21:40:58.536Z,1.40
2022-10-11T21:43:25.070Z,0.95
2022-10-11T21:45:51.810Z,1.40
2022-10-11T21:48:18.337Z,1.67
2022-10-11T21:50:44.891Z,1.13
2022-10-11T21:53:11.426Z,1.48
2022-10-11T21:55:37.927Z,2.78
2022-10-11T21:58:06.362Z,1.33
2022-10-11T22:00:32.908Z,2.25
2022-10-11T22:02:59.512Z,1.05
2022-10-11T22:05:26.072Z,1.98
2022-10-11T22:07:52.683Z,0.75
2022-10-11T22:10:19.425Z,1.15
2022-10-11T22:12:45.960Z,0.82
2022-10-11T22:15:12.557Z,0.93
2022-10-11T22:17:39.103Z,1.05
2022-10-11T22:20:05.980Z,1.42
2022-10-11T22:22:32.888Z,0.82
2022-10-11T22:24:59.709Z,1.50
2022-10-11T22:27:26.262Z,1.95
2022-10-11T22:29:52.780Z,1.15
2022-10-11T22:32:19.316Z,0.90
2022-10-11T22:34:45.881Z,1.48
2022-10-11T22:37:12.412Z,3.38
2022-10-11T22:39:39.122Z,1.75
2022-10-11T22:42:05.736Z,1.75
2022-10-11T22:44:32.387Z,3.35
2022-10-11T22:46:58.988Z,1.73
2022-10-11T22:49:25.563Z,1.40
2022-10-11T22:51:52.165Z,1.75
2022-10-11T22:54:18.705Z,1.52
2022-10-11T22:56:45.254Z,1.30
2022-10-11T22:59:11.782Z,1.45
2022-10-11T23:01:38.317Z,2.30
2022-10-11T23:04:04.883Z,2.58
2022-10-11T23:06:32.009Z,1.52
2022-10-11T23:08:58.548Z,1.42
2022-10-11T23:11:25.072Z,1.73
2022-10-11T23:13:51.653Z,1.60
2022-10-11T23:16:18.184Z,1.67
2022-10-11T23:18:44.761Z,1.40
2022-10-11T23:21:11.361Z,2.25
2022-10-11T23:23:39.713Z,1.50
2022-10-11T23:26:09.505Z,1.92
2022-10-11T23:28:36.114Z,0.90
2022-10-11T23:31:09.202Z,1.00
2022-10-11T23:33:36.166Z,3.25
2022-10-11T23:36:03.225Z,1.38
2022-10-11T23:38:29.870Z,1.05
2022-10-11T23:40:56.452Z,2.75
2022-10-11T23:43:23.563Z,2.35
2022-10-11T23:45:50.219Z,1.08
2022-10-11T23:48:16.804Z,2.22
2022-10-11T23:50:43.313Z,2.60
2022-10-11T23:53:10.743Z,1.15
2022-10-11T23:55:37.329Z,1.08
2022-10-11T23:58:03.869Z,2.42
